createdAt,value
2018-03-15T00:02:19.148Z,65.21
2018-03-15T00:04:45.617Z,65.24
2018-03-15T00:07:12.839Z,65.20
2018-03-15T00:09:39.298Z,65.19
2018-03-15T00:12:05.906Z,65.18
2018-03-15T00:14:32.365Z,65.18
2018-03-15T00:17:00.014Z,65.18
2018-03-15T00:19:26.474Z,65.18
2018-03-15T00:21:52.953Z,65.17
2018-03-15T00:24:19.426Z,65.16
2018-03-15T00:26:47.540Z,65.17
2018-03-15T00:29:15.044Z,65.15
2018-03-15T00:31:42.353Z,65.15
2018-03-15T00:34:09.697Z,65.15
2018-03-15T00:36:36.246Z,65.16
2018-03-15T00:39:02.947Z,65.14
2018-03-15T00:41:29.491Z,65.16
2018-03-15T00:43:55.936Z,65.18
2018-03-15T00:46:22.405Z,65.14
2018-03-15T00:48:48.844Z,65.15
2018-03-15T00:51:15.294Z,65.14
2018-03-15T00:53:41.751Z,65.15
2018-03-15T00:56:08.211Z,65.15
2018-03-15T00:58:34.667Z,65.11
2018-03-15T01:01:01.232Z,65.12
2018-03-15T01:03:27.680Z,65.13
2018-03-15T01:05:54.907Z,65.08
2018-03-15T01:08:21.353Z,65.07
2018-03-15T01:10:47.815Z,65.06
2018-03-15T01:13:14.257Z,65.06
2018-03-15T01:15:40.726Z,65.07
2018-03-15T01:18:07.188Z,65.06
2018-03-15T01:20:34.450Z,65.05
2018-03-15T01:23:01.677Z,65.05
2018-03-15T01:25:28.153Z,65.03
2018-03-15T01:27:55.383Z,65.02
2018-03-15T01:30:21.850Z,65.02
2018-03-15T01:32:48.340Z,65.03
2018-03-15T01:35:14.798Z,65.05
2018-03-15T01:37:41.251Z,65.01
2018-03-15T01:40:07.716Z,65.01
2018-03-15T01:42:34.189Z,64.98
2018-03-15T01:45:00.697Z,64.97
2018-03-15T01:47:27.168Z,64.98
2018-03-15T01:49:55.144Z,64.94
2018-03-15T01:52:21.620Z,64.97
2018-03-15T01:54:48.840Z,64.98
2018-03-15T01:57:15.344Z,64.92
2018-03-15T01:59:42.554Z,64.93
2018-03-15T02:02:09.028Z,64.93
2018-03-15T02:04:35.507Z,64.87
2018-03-15T02:07:01.962Z,64.92
2018-03-15T02:09:28.446Z,64.90
2018-03-15T02:11:54.905Z,64.84
2018-03-15T02:14:21.373Z,64.88
2018-03-15T02:16:48.612Z,64.86
2018-03-15T02:19:15.067Z,64.85
2018-03-15T02:21:41.573Z,64.84
2018-03-15T02:24:08.017Z,64.83
2018-03-15T02:26:34.460Z,64.85
2018-03-15T02:29:00.910Z,64.83
2018-03-15T02:31:27.354Z,64.83
2018-03-15T02:33:53.856Z,64.81
2018-03-15T02:36:21.138Z,64.81
2018-03-15T02:38:48.353Z,64.80
2018-03-15T02:41:14.811Z,64.79
2018-03-15T02:43:42.031Z,64.80
2018-03-15T02:46:08.483Z,64.79
2018-03-15T02:48:35.018Z,64.76
2018-03-15T02:51:01.470Z,64.75
2018-03-15T02:53:28.001Z,64.75
2018-03-15T02:55:55.329Z,64.76
2018-03-15T02:58:21.787Z,64.77
2018-03-15T03:00:48.271Z,64.72
2018-03-15T03:03:14.730Z,64.76
2018-03-15T03:05:41.220Z,64.74
2018-03-15T03:08:08.445Z,64.71
2018-03-15T03:10:34.916Z,64.69
2018-03-15T03:13:01.373Z,64.74
2018-03-15T03:15:27.875Z,64.74
2018-03-15T03:17:54.330Z,64.71
2018-03-15T03:20:20.833Z,64.73
2018-03-15T03:22:47.281Z,64.72
2018-03-15T03:25:13.726Z,64.75
2018-03-15T03:27:40.169Z,64.72
2018-03-15T03:30:06.623Z,64.69
2018-03-15T03:32:33.870Z,64.70
2018-03-15T03:35:00.322Z,64.70
2018-03-15T03:37:27.560Z,64.69
2018-03-15T03:39:54.000Z,64.70
2018-03-15T03:42:20.468Z,64.71
2018-03-15T03:44:46.913Z,64.71
2018-03-15T03:47:13.411Z,64.67
2018-03-15T03:49:39.862Z,64.67
2018-03-15T03:52:06.352Z,64.69
2018-03-15T03:54:32.805Z,64.66
2018-03-15T03:56:59.297Z,64.69
2018-03-15T03:59:25.769Z,64.67
2018-03-15T04:01:52.251Z,64.67
2018-03-15T04:04:18.707Z,64.67
2018-03-15T04:06:45.951Z,64.66
2018-03-15T04:09:12.400Z,64.64
2018-03-15T04:11:38.861Z,64.63
2018-03-15T04:14:05.319Z,64.61
2018-03-15T04:16:32.533Z,64.59
2018-03-15T04:18:58.975Z,64.58
2018-03-15T04:21:25.420Z,64.58
2018-03-15T04:23:51.861Z,64.62
2018-03-15T04:26:18.379Z,64.62
2018-03-15T04:28:44.853Z,64.59
2018-03-15T04:31:11.300Z,64.62
2018-03-15T04:33:37.765Z,64.61
2018-03-15T04:36:04.220Z,64.59
2018-03-15T04:38:30.719Z,64.58
2018-03-15T04:40:57.185Z,64.54
2018-03-15T04:43:23.671Z,64.57
2018-03-15T04:45:50.130Z,64.53
2018-03-15T04:48:17.393Z,64.57
2018-03-15T04:50:43.846Z,64.51
2018-03-15T04:53:11.094Z,64.53
2018-03-15T04:55:37.560Z,64.50
2018-03-15T04:58:04.923Z,64.49
2018-03-15T05:00:32.133Z,64.50
2018-03-15T05:02:58.590Z,64.50
2018-03-15T05:05:25.052Z,64.47
2018-03-15T05:07:51.502Z,64.43
2018-03-15T05:10:18.723Z,64.47
2018-03-15T05:12:45.165Z,64.45
2018-03-15T05:15:11.623Z,64.46
2018-03-15T05:17:38.079Z,64.43
2018-03-15T05:20:04.540Z,64.43
2018-03-15T05:22:31.008Z,64.40
2018-03-15T05:24:57.478Z,64.41
2018-03-15T05:27:23.932Z,64.35
2018-03-15T05:29:50.420Z,64.37
2018-03-15T05:32:16.871Z,64.36
2018-03-15T05:34:43.350Z,64.36
2018-03-15T05:37:10.576Z,64.35
2018-03-15T05:39:37.055Z,64.35
2018-03-15T05:42:03.970Z,64.34
2018-03-15T05:44:30.469Z,64.29
2018-03-15T05:46:56.940Z,64.24
2018-03-15T05:49:23.402Z,64.23
2018-03-15T05:51:49.873Z,64.29
2018-03-15T05:54:16.331Z,64.29
2018-03-15T05:56:42.787Z,64.27
2018-03-15T05:59:10.019Z,64.23
2018-03-15T06:01:36.523Z,64.27
2018-03-15T06:04:03.102Z,64.24
2018-03-15T06:06:29.544Z,64.20
2018-03-15T06:08:55.988Z,64.24
2018-03-15T06:11:22.434Z,64.20
2018-03-15T06:13:48.869Z,64.25
2018-03-15T06:16:15.308Z,64.19
2018-03-15T06:18:41.780Z,63.48
2018-03-15T06:21:08.252Z,63.44
2018-03-15T06:23:34.711Z,63.35
2018-03-15T06:26:01.176Z,64.30
2018-03-15T06:28:28.408Z,64.16
2018-03-15T06:30:55.654Z,63.78
2018-03-15T06:33:22.105Z,64.13
2018-03-15T06:35:48.609Z,63.83
2018-03-15T06:38:15.081Z,63.73
2018-03-15T06:40:41.530Z,63.72
2018-03-15T06:43:08.752Z,63.73
2018-03-15T06:45:35.989Z,63.74
2018-03-15T06:48:02.502Z,63.82
2018-03-15T06:50:28.961Z,63.79
2018-03-15T06:52:55.415Z,63.83
2018-03-15T06:55:21.887Z,63.80
2018-03-15T06:57:48.332Z,63.83
2018-03-15T07:00:14.826Z,63.82
2018-03-15T07:02:41.278Z,63.84
2018-03-15T07:05:07.767Z,63.85
2018-03-15T07:07:34.219Z,63.82
2018-03-15T07:10:01.482Z,63.84
2018-03-15T07:12:27.955Z,63.91
2018-03-15T07:14:54.424Z,63.88
2018-03-15T07:17:20.868Z,63.93
2018-03-15T07:19:47.313Z,63.96
2018-03-15T07:22:13.781Z,63.99
2018-03-15T07:24:40.224Z,64.02
2018-03-15T07:27:06.670Z,64.02
2018-03-15T07:29:33.111Z,64.00
2018-03-15T07:31:59.580Z,63.81
2018-03-15T07:34:26.053Z,64.08
2018-03-15T07:36:53.260Z,64.06
2018-03-15T07:39:19.767Z,64.09
2018-03-15T07:41:46.184Z,64.10
2018-03-15T07:44:12.638Z,64.16
2018-03-15T07:46:39.099Z,64.19
2018-03-15T07:49:06.313Z,64.20
2018-03-15T07:51:32.771Z,64.20
2018-03-15T07:53:59.241Z,64.17
2018-03-15T07:56:25.734Z,64.16
2018-03-15T07:58:52.209Z,64.09
2018-03-15T08:01:18.671Z,64.05
2018-03-15T08:03:45.116Z,63.98
2018-03-15T08:06:11.571Z,63.93
2018-03-15T08:08:38.027Z,63.85
2018-03-15T08:11:05.242Z,63.83
2018-03-15T08:13:31.708Z,63.76
2018-03-15T08:15:58.162Z,63.70
2018-03-15T08:18:24.618Z,63.64
2018-03-15T08:20:51.206Z,63.11
2018-03-15T08:23:17.682Z,63.42
2018-03-15T08:25:44.147Z,64.40
2018-03-15T08:28:10.602Z,64.20
2018-03-15T08:30:37.056Z,64.05
2018-03-15T08:33:04.257Z,63.89
2018-03-15T08:35:30.784Z,63.87
2018-03-15T08:37:57.208Z,63.92
2018-03-15T08:40:25.172Z,63.92
2018-03-15T08:42:51.668Z,63.93
2018-03-15T08:45:18.224Z,63.94
2018-03-15T08:47:44.686Z,63.95
2018-03-15T08:50:11.153Z,63.96
2018-03-15T08:52:37.607Z,64.00
2018-03-15T08:55:04.197Z,64.04
2018-03-15T08:57:31.432Z,64.05
2018-03-15T08:59:57.904Z,64.06
2018-03-15T09:02:25.136Z,64.08
2018-03-15T09:04:51.681Z,64.09
2018-03-15T09:07:18.109Z,64.12
2018-03-15T09:09:44.611Z,64.12
2018-03-15T09:12:11.830Z,64.13
2018-03-15T09:14:38.311Z,64.18
2018-03-15T09:17:04.836Z,64.16
2018-03-15T09:19:31.316Z,63.10
2018-03-15T09:21:58.543Z,59.63
2018-03-15T09:24:25.866Z,59.15
2018-03-15T09:26:52.336Z,59.20
2018-03-15T09:29:18.833Z,59.31
2018-03-15T09:31:46.063Z,59.41
2018-03-15T09:34:12.593Z,59.46
2018-03-15T09:36:39.067Z,59.68
2018-03-15T09:39:05.547Z,59.82
2018-03-15T09:41:32.045Z,59.96
2018-03-15T09:43:58.502Z,60.02
2018-03-15T09:46:25.028Z,60.10
2018-03-15T09:48:51.509Z,60.17
2018-03-15T09:51:18.795Z,60.30
2018-03-15T09:53:45.272Z,60.41
2018-03-15T09:56:11.786Z,60.52
2018-03-15T09:58:39.052Z,60.64
2018-03-15T10:01:06.305Z,60.76
2018-03-15T10:03:33.568Z,60.90
2018-03-15T10:06:00.854Z,60.98
2018-03-15T10:08:27.333Z,61.09
2018-03-15T10:10:53.827Z,61.19
2018-03-15T10:13:21.080Z,61.29
2018-03-15T10:15:47.569Z,61.43
2018-03-15T10:18:14.047Z,62.81
2018-03-15T10:20:40.577Z,63.48
2018-03-15T10:23:07.045Z,63.28
2018-03-15T10:25:33.554Z,63.15
2018-03-15T10:28:00.782Z,63.17
2018-03-15T10:30:28.040Z,63.23
2018-03-15T10:32:54.513Z,63.28
2018-03-15T10:35:21.012Z,63.31
2018-03-15T10:37:47.481Z,63.12
2018-03-15T10:40:13.955Z,62.79
2018-03-15T10:42:41.218Z,62.64
2018-03-15T10:45:08.454Z,62.10
2018-03-15T10:47:34.953Z,62.37
2018-03-15T10:50:01.439Z,62.05
2018-03-15T10:52:27.944Z,62.10
2018-03-15T10:54:54.405Z,62.12
2018-03-15T10:57:20.896Z,60.81
2018-03-15T10:59:47.400Z,60.59
2018-03-15T11:02:13.896Z,60.85
2018-03-15T11:04:40.340Z,61.42
2018-03-15T11:07:06.959Z,61.70
2018-03-15T11:09:33.432Z,62.03
2018-03-15T11:11:59.910Z,62.38
2018-03-15T11:14:26.386Z,62.80
2018-03-15T11:16:52.860Z,62.75
2018-03-15T11:19:19.339Z,62.98
2018-03-15T11:21:46.579Z,63.14
2018-03-15T11:24:13.055Z,63.31
2018-03-15T11:26:39.522Z,63.20
2018-03-15T11:29:06.003Z,63.47
2018-03-15T11:31:32.471Z,62.50
2018-03-15T11:33:59.722Z,63.24
2018-03-15T11:36:27.714Z,63.16
2018-03-15T11:38:54.965Z,63.39
2018-03-15T11:41:21.453Z,63.47
2018-03-15T11:43:48.014Z,63.57
2018-03-15T11:46:14.437Z,63.40
2018-03-15T11:48:41.720Z,63.40
2018-03-15T11:51:08.212Z,63.78
2018-03-15T11:53:34.703Z,63.69
2018-03-15T11:56:01.191Z,63.77
2018-03-15T11:58:29.669Z,63.78
2018-03-15T12:00:56.142Z,63.89
2018-03-15T12:03:22.642Z,63.86
2018-03-15T12:05:49.131Z,63.94
2018-03-15T12:08:15.601Z,63.94
2018-03-15T12:10:42.097Z,63.64
2018-03-15T12:13:08.601Z,63.84
2018-03-15T12:15:35.869Z,64.13
2018-03-15T12:18:03.846Z,64.01
2018-03-15T12:20:30.397Z,64.23
2018-03-15T12:22:56.917Z,64.39
2018-03-15T12:25:23.489Z,64.11
2018-03-15T12:27:49.961Z,63.91
2018-03-15T12:30:17.211Z,62.33
2018-03-15T12:32:43.657Z,63.80
2018-03-15T12:35:10.120Z,63.33
2018-03-15T12:37:36.575Z,63.22
2018-03-15T12:40:03.853Z,63.14
2018-03-15T12:42:30.338Z,63.05
2018-03-15T12:44:56.794Z,63.11
2018-03-15T12:47:23.269Z,63.14
2018-03-15T12:49:49.723Z,63.15
2018-03-15T12:52:16.942Z,63.17
2018-03-15T12:54:43.385Z,63.18
2018-03-15T12:57:09.838Z,63.17
2018-03-15T12:59:36.308Z,63.16
2018-03-15T13:02:03.918Z,63.18
2018-03-15T13:04:30.382Z,63.19
2018-03-15T13:06:56.838Z,63.22
2018-03-15T13:09:23.309Z,63.23
2018-03-15T13:11:49.756Z,63.24
2018-03-15T13:14:16.214Z,63.44
2018-03-15T13:16:42.671Z,63.34
2018-03-15T13:19:09.895Z,63.11
2018-03-15T13:21:36.355Z,63.10
2018-03-15T13:24:02.856Z,62.84
2018-03-15T13:26:29.360Z,62.45
2018-03-15T13:28:55.823Z,62.49
2018-03-15T13:31:23.085Z,62.43
2018-03-15T13:33:49.560Z,62.53
2018-03-15T13:36:16.019Z,62.51
2018-03-15T13:38:42.475Z,62.48
2018-03-15T13:41:08.933Z,62.51
2018-03-15T13:43:35.406Z,62.48
2018-03-15T13:46:02.021Z,62.45
2018-03-15T13:48:28.511Z,62.38
2018-03-15T13:50:54.954Z,62.39
2018-03-15T13:53:21.410Z,62.35
2018-03-15T13:55:48.634Z,62.25
2018-03-15T13:58:15.090Z,62.29
2018-03-15T14:00:41.540Z,62.25
2018-03-15T14:03:07.995Z,62.22
2018-03-15T14:05:34.455Z,62.18
2018-03-15T14:08:01.688Z,62.15
2018-03-15T14:10:28.147Z,62.06
2018-03-15T14:12:54.612Z,62.06
2018-03-15T14:15:21.829Z,62.04
2018-03-15T14:17:48.276Z,61.99
2018-03-15T14:20:14.759Z,61.95
2018-03-15T14:22:41.223Z,61.97
2018-03-15T14:25:08.471Z,62.51
2018-03-15T14:27:36.483Z,61.74
2018-03-15T14:30:03.563Z,61.67
2018-03-15T14:32:30.501Z,61.70
2018-03-15T14:34:58.003Z,61.73
2018-03-15T14:37:25.747Z,61.85
2018-03-15T14:39:53.218Z,61.95
2018-03-15T14:42:20.790Z,61.94
2018-03-15T14:44:48.159Z,61.90
2018-03-15T14:47:15.203Z,61.89
2018-03-15T14:49:42.894Z,61.84
2018-03-15T14:52:10.465Z,61.83
2018-03-15T14:54:37.830Z,61.84
2018-03-15T14:57:05.215Z,61.90
2018-03-15T14:59:32.464Z,61.93
2018-03-15T15:01:59.423Z,61.94
2018-03-15T15:04:27.507Z,61.91
2018-03-15T15:06:55.695Z,61.96
2018-03-15T15:09:23.728Z,62.02
2018-03-15T15:11:50.738Z,62.01
2018-03-15T15:14:18.006Z,61.98
2018-03-15T15:16:45.482Z,62.02
2018-03-15T15:19:13.161Z,62.08
2018-03-15T15:21:40.575Z,62.07
2018-03-15T15:24:07.804Z,62.06
2018-03-15T15:26:35.270Z,62.10
2018-03-15T15:29:02.623Z,62.08
2018-03-15T15:31:30.184Z,62.07
2018-03-15T15:33:57.571Z,62.07
2018-03-15T15:36:25.102Z,62.11
2018-03-15T15:38:52.699Z,62.10
2018-03-15T15:41:20.368Z,62.10
2018-03-15T15:43:46.995Z,62.12
2018-03-15T15:46:13.479Z,62.03
2018-03-15T15:48:39.989Z,62.15
2018-03-15T15:51:08.092Z,62.22
2018-03-15T15:53:35.301Z,62.21
2018-03-15T15:56:02.651Z,62.25
2018-03-15T15:58:29.097Z,62.67
2018-03-15T16:00:55.587Z,63.47
2018-03-15T16:03:22.048Z,63.54
2018-03-15T16:05:49.275Z,62.66
2018-03-15T16:08:15.734Z,63.08
2018-03-15T16:10:42.177Z,62.73
2018-03-15T16:13:08.733Z,62.60
2018-03-15T16:15:35.205Z,62.63
2018-03-15T16:18:02.597Z,62.66
2018-03-15T16:20:29.056Z,62.78
2018-03-15T16:22:55.581Z,62.82
2018-03-15T16:25:22.794Z,62.82
2018-03-15T16:27:49.291Z,62.84
2018-03-15T16:30:16.514Z,62.78
2018-03-15T16:32:43.012Z,62.72
2018-03-15T16:35:09.475Z,63.16
2018-03-15T16:37:35.959Z,62.70
2018-03-15T16:40:02.419Z,62.54
2018-03-15T16:42:28.917Z,62.94
2018-03-15T16:44:55.551Z,62.77
2018-03-15T16:47:22.138Z,62.48
2018-03-15T16:49:48.693Z,62.74
2018-03-15T16:52:15.150Z,62.40
2018-03-15T16:54:41.737Z,62.27
2018-03-15T16:57:08.328Z,62.37
2018-03-15T16:59:34.802Z,62.47
2018-03-15T17:02:01.337Z,62.60
2018-03-15T17:04:27.793Z,62.70
2018-03-15T17:06:54.251Z,62.76
2018-03-15T17:09:21.538Z,62.77
2018-03-15T17:11:48.006Z,62.77
2018-03-15T17:14:14.448Z,62.78
2018-03-15T17:16:40.906Z,62.79
2018-03-15T17:19:07.409Z,62.80
2018-03-15T17:21:34.635Z,62.83
2018-03-15T17:24:01.188Z,62.84
2018-03-15T17:26:27.781Z,62.90
2018-03-15T17:28:54.278Z,62.94
2018-03-15T17:31:20.731Z,62.95
2018-03-15T17:33:48.127Z,63.00
2018-03-15T17:36:15.606Z,63.03
2018-03-15T17:38:42.938Z,63.05
2018-03-15T17:41:09.737Z,63.05
2018-03-15T17:43:36.281Z,63.09
2018-03-15T17:46:03.749Z,63.11
2018-03-15T17:48:30.225Z,63.14
2018-03-15T17:50:56.952Z,63.20
2018-03-15T17:53:23.873Z,63.17
2018-03-15T17:55:51.170Z,63.23
2018-03-15T17:58:17.718Z,63.23
2018-03-15T18:00:44.987Z,63.23
2018-03-15T18:03:12.662Z,63.25
2018-03-15T18:05:39.903Z,63.28
2018-03-15T18:08:07.301Z,63.27
2018-03-15T18:10:34.662Z,63.23
2018-03-15T18:13:02.816Z,63.29
2018-03-15T18:15:30.319Z,63.33
2018-03-15T18:17:57.799Z,63.39
2018-03-15T18:20:25.363Z,63.37
2018-03-15T18:22:52.690Z,63.39
2018-03-15T18:25:20.014Z,63.41
2018-03-15T18:27:47.830Z,63.40
2018-03-15T18:30:15.237Z,63.44
2018-03-15T18:32:43.529Z,63.46
2018-03-15T18:35:10.283Z,63.50
2018-03-15T18:37:38.326Z,63.50
2018-03-15T18:40:05.466Z,63.50
2018-03-15T18:42:32.901Z,63.54
2018-03-15T18:45:00.366Z,63.55
2018-03-15T18:47:28.917Z,63.57
2018-03-15T18:49:56.383Z,63.60
2018-03-15T18:52:24.804Z,63.58
2018-03-15T18:54:52.295Z,63.63
2018-03-15T18:57:19.651Z,63.60
2018-03-15T18:59:47.133Z,63.66
2018-03-15T19:02:15.067Z,63.68
2018-03-15T19:04:42.585Z,63.71
2018-03-15T19:07:10.966Z,63.75
2018-03-15T19:09:38.229Z,63.79
2018-03-15T19:12:05.818Z,63.82
2018-03-15T19:14:34.107Z,63.84
2018-03-15T19:17:01.768Z,63.85
2018-03-15T19:19:29.352Z,63.89
2018-03-15T19:21:57.739Z,63.93
2018-03-15T19:24:25.930Z,63.92
2018-03-15T19:26:54.811Z,63.96
2018-03-15T19:29:22.106Z,63.98
2018-03-15T19:31:49.534Z,64.00
2018-03-15T19:34:16.835Z,64.02
2018-03-15T19:36:44.200Z,64.05
2018-03-15T19:39:12.483Z,64.04
2018-03-15T19:41:40.569Z,64.08
2018-03-15T19:44:08.870Z,64.07
2018-03-15T19:46:36.235Z,64.09
2018-03-15T19:49:04.319Z,64.11
2018-03-15T19:51:31.786Z,64.13
2018-03-15T19:53:59.464Z,64.14
2018-03-15T19:56:26.917Z,64.15
2018-03-15T19:58:54.420Z,64.16
2018-03-15T20:01:22.077Z,64.17
2018-03-15T20:03:49.649Z,64.20
2018-03-15T20:06:17.837Z,64.23
2018-03-15T20:08:45.407Z,64.23
2018-03-15T20:11:13.463Z,64.25
2018-03-15T20:13:41.064Z,64.26
2018-03-15T20:16:08.456Z,64.29
2018-03-15T20:18:36.097Z,64.52
2018-03-15T20:21:03.450Z,64.31
2018-03-15T20:23:30.919Z,64.22
2018-03-15T20:25:58.413Z,64.19
2018-03-15T20:28:25.884Z,64.24
2018-03-15T20:30:53.462Z,64.30
2018-03-15T20:33:21.738Z,64.33
2018-03-15T20:35:49.114Z,64.35
2018-03-15T20:38:16.481Z,64.38
2018-03-15T20:40:43.951Z,64.38
2018-03-15T20:43:12.138Z,64.40
2018-03-15T20:45:39.570Z,64.40
2018-03-15T20:48:06.960Z,64.42
2018-03-15T20:50:34.218Z,64.43
2018-03-15T20:53:01.776Z,64.45
2018-03-15T20:55:29.159Z,64.47
2018-03-15T20:57:56.522Z,64.45
2018-03-15T21:00:23.913Z,64.47
2018-03-15T21:02:52.102Z,64.48
2018-03-15T21:05:19.930Z,64.48
2018-03-15T21:07:47.140Z,64.52
2018-03-15T21:10:14.714Z,64.52
2018-03-15T21:12:42.169Z,64.52
2018-03-15T21:15:10.329Z,64.51
2018-03-15T21:17:37.638Z,64.54
2018-03-15T21:20:05.503Z,64.54
2018-03-15T21:22:32.681Z,64.55
2018-03-15T21:24:59.676Z,64.56
2018-03-15T21:27:26.951Z,64.56
2018-03-15T21:29:54.165Z,64.58
2018-03-15T21:32:21.497Z,64.58
2018-03-15T21:34:48.747Z,64.58
2018-03-15T21:37:15.407Z,64.58
2018-03-15T21:39:42.203Z,64.59
2018-03-15T21:42:08.946Z,64.58
2018-03-15T21:44:35.711Z,64.59
2018-03-15T21:47:02.463Z,64.57
2018-03-15T21:49:29.194Z,64.61
2018-03-15T21:51:55.875Z,64.59
2018-03-15T21:54:22.602Z,64.58
2018-03-15T21:56:49.345Z,64.61
2018-03-15T21:59:16.837Z,64.62
2018-03-15T22:01:43.593Z,64.62
2018-03-15T22:04:10.348Z,64.61
2018-03-15T22:06:37.097Z,64.62
2018-03-15T22:09:04.158Z,64.62
2018-03-15T22:11:31.526Z,64.61
2018-03-15T22:13:58.484Z,64.64
2018-03-15T22:16:25.852Z,64.64
2018-03-15T22:18:53.207Z,64.61
2018-03-15T22:21:20.587Z,64.62
2018-03-15T22:23:48.060Z,64.61
2018-03-15T22:26:15.518Z,64.63
2018-03-15T22:28:42.999Z,64.62
2018-03-15T22:31:10.260Z,64.63
2018-03-15T22:33:37.679Z,64.64
2018-03-15T22:36:04.791Z,64.65
2018-03-15T22:38:32.288Z,63.57
2018-03-15T22:40:59.835Z,64.92
2018-03-15T22:43:27.511Z,64.61
2018-03-15T22:45:55.697Z,64.49
2018-03-15T22:48:23.268Z,64.44
2018-03-15T22:50:51.434Z,64.38
2018-03-15T22:53:20.555Z,64.38
2018-03-15T22:55:48.651Z,64.40
2018-03-15T22:58:16.328Z,64.39
2018-03-15T23:00:43.756Z,64.40
2018-03-15T23:03:11.239Z,64.40
2018-03-15T23:05:39.544Z,64.42
2018-03-15T23:08:06.863Z,64.41
2018-03-15T23:10:34.319Z,64.41
2018-03-15T23:13:01.750Z,64.42
2018-03-15T23:15:30.141Z,64.42
2018-03-15T23:17:58.227Z,64.43
2018-03-15T23:20:25.809Z,64.43
2018-03-15T23:22:53.380Z,64.46
2018-03-15T23:25:21.062Z,64.47
2018-03-15T23:27:48.524Z,64.47
2018-03-15T23:30:16.309Z,64.49
2018-03-15T23:32:44.483Z,64.49
2018-03-15T23:35:12.168Z,64.49
2018-03-15T23:37:39.529Z,64.50
2018-03-15T23:40:07.929Z,64.51
2018-03-15T23:42:35.091Z,64.49
2018-03-15T23:45:02.658Z,64.50
2018-03-15T23:47:30.770Z,64.51
2018-03-15T23:49:58.211Z,64.52
2018-03-15T23:52:25.686Z,64.53
2018-03-15T23:54:53.151Z,64.55
2018-03-15T23:57:21.956Z,64.54
2018-03-15T23:59:50.776Z,64.57
